Macy, Iowa
Current Conditions -  °F | °C
As of 4:35 PM on Friday 24 Oct 2014 (Local Time) from KIFA Reporting Station
Haze Haze  
Wind Chill: 64°   Ceiling: 1800
Heat Index: 64°   Visibility: 4mi
Dew Point: 61°   Wind: 6mph
Humidity: 90%   Direction: 190°S
Pressure: 29.89"   Gusts: NA
Location:  42.5577°N, 93.0852°W
Report Text: KIFA 242135Z AUTO 19005KT 4SM BR SCT008 OVC018 18/16 A2989 RMK AO2 T01780161
Loading
Personal Weather Stations






























Interactive Weather Map
Tropical Storm Tracking
New forecast layout! Learn more

10-Day Weather Forecast

Advertisements
Track Severe Weather on mobile